createdAt,value
2023-03-05T00:00:15.708Z,100701.56
2023-03-05T00:10:21.013Z,100679.19
2023-03-05T00:20:24.809Z,100680.34
2023-03-05T00:30:29.860Z,100679.06
2023-03-05T00:40:38.084Z,100665.31
2023-03-05T00:50:43.082Z,100659.19
2023-03-05T01:00:46.875Z,100656.03
2023-03-05T01:10:52.083Z,100633.19
2023-03-05T01:20:55.972Z,100635.13
2023-03-05T01:31:00.982Z,100632.22
2023-03-05T01:41:05.060Z,100625.72
2023-03-05T01:51:10.174Z,100609.91
2023-03-05T02:01:14.184Z,100608.34
2023-03-05T02:11:19.272Z,100597.50
2023-03-05T02:21:39.614Z,100587.81
2023-03-05T02:31:43.342Z,100572.19
2023-03-05T02:41:48.452Z,100569.59
2023-03-05T02:51:52.405Z,100563.19
2023-03-05T03:01:57.691Z,100550.69
2023-03-05T03:12:01.389Z,100543.19
2023-03-05T03:22:08.339Z,100542.69
2023-03-05T03:32:12.051Z,100542.41
2023-03-05T03:42:19.552Z,100542.41
2023-03-05T03:52:23.945Z,100532.66
2023-03-05T04:02:29.389Z,100534.75
2023-03-05T04:12:33.079Z,100529.19
2023-03-05T04:22:38.447Z,100525.56
2023-03-05T04:32:42.167Z,100518.00
2023-03-05T04:42:47.291Z,100519.78
2023-03-05T04:52:50.893Z,100514.28
2023-03-05T05:02:56.546Z,100508.09
2023-03-05T05:13:00.231Z,100498.06
2023-03-05T05:23:05.342Z,100486.88
2023-03-05T05:33:09.205Z,100468.75
2023-03-05T05:43:14.524Z,100460.78
2023-03-05T05:53:18.222Z,100450.66
2023-03-05T06:03:23.745Z,100455.22
2023-03-05T06:13:27.460Z,100448.94
2023-03-05T06:23:32.567Z,100444.47
2023-03-05T06:33:37.726Z,100447.91
2023-03-05T06:43:45.249Z,100445.94
2023-03-05T06:53:50.243Z,100454.13
2023-03-05T07:03:58.959Z,100456.88
2023-03-05T07:14:04.754Z,100453.84
2023-03-05T07:24:10.145Z,100453.84
2023-03-05T07:34:15.266Z,100450.78
2023-03-05T07:44:20.458Z,100443.84
2023-03-05T07:54:24.176Z,100451.75
2023-03-05T08:04:31.786Z,100457.63
2023-03-05T08:14:36.568Z,100453.47
2023-03-05T08:24:41.575Z,100439.31
2023-03-05T08:34:45.751Z,100447.31
2023-03-05T08:44:50.972Z,100437.75
2023-03-05T08:54:54.699Z,100421.28
2023-03-05T09:05:00.436Z,100415.34
2023-03-05T09:15:04.350Z,100395.38
2023-03-05T09:25:14.676Z,100375.44
2023-03-05T09:35:18.535Z,100369.66
2023-03-05T09:45:29.183Z,100357.88
2023-03-05T09:55:40.391Z,100361.81
2023-03-05T10:06:03.262Z,100346.00
2023-03-05T10:16:32.837Z,100338.38
2023-03-05T10:27:00.106Z,100332.91
2023-03-05T10:37:33.017Z,100303.81
2023-03-05T10:47:47.079Z,100299.69
2023-03-05T10:57:51.348Z,100295.28
2023-03-05T11:07:56.412Z,100292.06
2023-03-05T11:18:24.041Z,100284.38
2023-03-05T11:28:34.582Z,100274.94
2023-03-05T11:38:48.111Z,100261.16
2023-03-05T11:48:55.435Z,100254.44
2023-03-05T11:59:04.687Z,100238.81
2023-03-05T12:09:16.832Z,100216.34
2023-03-05T12:19:47.070Z,100196.66
2023-03-05T12:29:54.444Z,100176.47
2023-03-05T12:40:04.880Z,100176.09
2023-03-05T12:50:52.742Z,100167.84
2023-03-05T13:01:04.437Z,100135.50
2023-03-05T13:11:17.985Z,100130.47
2023-03-05T13:21:27.024Z,100118.41
2023-03-05T13:31:32.916Z,100114.00
2023-03-05T13:41:36.685Z,100103.88
2023-03-05T13:51:47.069Z,100088.03
2023-03-05T14:01:53.932Z,100074.00
2023-03-05T14:12:04.604Z,100047.78
2023-03-05T14:22:30.899Z,100036.66
2023-03-05T14:32:38.156Z,100033.53
2023-03-05T14:42:53.641Z,100026.81
2023-03-05T14:53:02.095Z,100002.41
2023-03-05T15:03:06.693Z,99994.53
2023-03-05T15:13:13.595Z,99980.50
2023-03-05T15:23:18.658Z,99974.53
2023-03-05T15:33:24.005Z,99956.63
2023-03-05T15:43:27.862Z,99949.09
2023-03-05T15:53:33.416Z,99948.19
2023-03-05T16:03:37.889Z,99942.44
2023-03-05T16:13:43.961Z,99929.63
2023-03-05T16:23:49.758Z,99927.06
2023-03-05T16:33:55.176Z,99914.97
2023-03-05T16:44:00.406Z,99909.03
2023-03-05T16:54:05.645Z,99903.66
2023-03-05T17:04:09.741Z,99901.75
2023-03-05T17:14:15.029Z,99896.69
2023-03-05T17:24:20.850Z,99891.88
2023-03-05T17:34:35.851Z,99890.63
2023-03-05T17:44:40.362Z,99893.44
2023-03-05T17:54:45.495Z,99895.38
2023-03-05T18:04:52.209Z,99888.53
2023-03-05T18:14:57.793Z,99879.97
2023-03-05T18:25:01.540Z,99877.88
2023-03-05T18:35:07.962Z,99864.84
2023-03-05T18:45:14.526Z,99862.16
2023-03-05T18:55:23.028Z,99851.00
2023-03-05T19:05:27.933Z,99847.91
2023-03-05T19:15:33.807Z,99843.50
2023-03-05T19:25:37.626Z,99840.13
2023-03-05T19:35:43.905Z,99828.19
2023-03-05T19:45:47.749Z,99823.59
2023-03-05T19:55:53.528Z,99815.41
2023-03-05T20:05:57.466Z,99809.53
2023-03-05T20:16:02.728Z,99798.41
2023-03-05T20:26:06.992Z,99789.00
2023-03-05T20:36:12.618Z,99789.94
2023-03-05T20:46:21.044Z,99782.59
2023-03-05T20:56:27.969Z,99779.63
2023-03-05T21:06:33.250Z,99764.72
2023-03-05T21:16:38.358Z,99757.06
2023-03-05T21:26:42.025Z,99751.25
2023-03-05T21:36:47.188Z,99749.44
2023-03-05T21:46:51.416Z,99729.25
2023-03-05T21:56:56.548Z,99706.22
2023-03-05T22:07:00.145Z,99691.66
2023-03-05T22:17:05.500Z,99667.59
2023-03-05T22:27:09.727Z,99656.88
2023-03-05T22:37:14.784Z,99644.97
2023-03-05T22:47:18.437Z,99636.91
2023-03-05T22:57:23.539Z,99619.28
2023-03-05T23:07:29.454Z,99608.88
2023-03-05T23:17:34.528Z,99604.56
2023-03-05T23:27:38.189Z,99596.19
2023-03-05T23:37:43.192Z,99593.78
2023-03-05T23:47:48.260Z,99576.25
2023-03-05T23:57:54.216Z,99570.78
